createdAt,value
2022-12-08T00:02:14.383Z,89139.81
2022-12-08T00:04:56.757Z,89396.97
2022-12-08T00:07:44.347Z,89396.97
2022-12-08T00:10:46.638Z,89654.13
2022-12-08T00:13:01.383Z,89911.31
2022-12-08T00:15:29.908Z,90425.72
2022-12-08T00:18:34.913Z,90425.72
2022-12-08T00:21:03.537Z,90682.97
2022-12-08T00:23:32.138Z,90940.22
2022-12-08T00:26:03.720Z,91197.50
2022-12-08T00:28:33.081Z,90940.22
2022-12-08T00:31:01.973Z,90940.22
2022-12-08T00:33:30.704Z,91454.81
2022-12-08T00:36:00.486Z,91454.81
2022-12-08T00:38:28.743Z,91969.47
2022-12-08T00:40:57.090Z,91969.47
2022-12-08T00:43:25.563Z,92484.19
2022-12-08T00:45:54.326Z,92741.59
2022-12-08T00:48:22.706Z,92226.81
2022-12-08T00:50:51.221Z,92999.00
2022-12-08T00:53:21.545Z,93513.91
2022-12-08T00:55:49.938Z,93771.38
2022-12-08T00:58:18.417Z,94028.84
2022-12-08T01:00:46.981Z,94286.38
2022-12-08T01:03:15.523Z,94543.91
2022-12-08T01:05:44.661Z,94543.91
2022-12-08T01:08:13.123Z,94801.44
2022-12-08T01:10:42.895Z,94801.44
2022-12-08T01:13:11.475Z,95059.00
2022-12-08T01:15:39.925Z,95316.59
2022-12-08T01:18:08.376Z,95574.19
2022-12-08T01:20:36.648Z,95831.81
2022-12-08T01:23:05.159Z,96089.47
2022-12-08T01:25:35.865Z,96089.47
2022-12-08T01:28:05.834Z,96089.47
2022-12-08T01:30:34.198Z,96089.47
2022-12-08T01:33:03.102Z,96347.13
2022-12-08T01:35:31.734Z,96089.47
2022-12-08T01:38:00.345Z,96089.47
2022-12-08T01:40:28.729Z,95831.81
2022-12-08T01:42:56.967Z,96089.47
2022-12-08T01:45:29.017Z,96089.47
2022-12-08T01:48:01.336Z,95831.81
2022-12-08T01:50:31.431Z,96089.47
2022-12-08T01:53:03.177Z,95831.81
2022-12-08T01:55:35.660Z,95574.19
2022-12-08T01:58:08.478Z,94801.44
2022-12-08T02:00:38.499Z,94286.38
2022-12-08T02:03:12.358Z,94286.38
2022-12-08T02:05:42.074Z,94028.84
2022-12-08T02:08:12.752Z,93771.38
2022-12-08T02:10:44.679Z,94286.38
2022-12-08T02:13:16.502Z,93513.91
2022-12-08T02:15:58.243Z,93513.91
2022-12-08T02:19:02.095Z,92999.00
2022-12-08T02:21:44.967Z,92999.00
2022-12-08T02:24:20.482Z,92999.00
2022-12-08T02:27:17.606Z,93256.44
2022-12-08T02:30:03.653Z,92999.00
2022-12-08T02:33:05.290Z,93256.44
2022-12-08T02:35:40.303Z,93256.44
2022-12-08T02:38:16.636Z,93256.44
2022-12-08T02:40:55.119Z,93513.91
2022-12-08T02:43:29.214Z,93513.91
2022-12-08T02:46:02.760Z,93513.91
2022-12-08T02:48:31.970Z,93513.91
2022-12-08T02:51:02.593Z,93513.91
2022-12-08T02:53:34.203Z,93771.38
2022-12-08T02:56:10.884Z,93771.38
2022-12-08T02:59:11.533Z,93771.38
2022-12-08T03:01:57.586Z,93771.38
2022-12-08T03:04:40.423Z,93256.44
2022-12-08T03:07:16.220Z,93771.38
2022-12-08T03:09:51.216Z,93513.91
2022-12-08T03:12:24.291Z,93771.38
2022-12-08T03:14:57.067Z,93513.91
2022-12-08T03:17:29.992Z,93513.91
2022-12-08T03:20:00.711Z,93771.38
2022-12-08T03:22:30.849Z,93771.38
2022-12-08T03:25:00.223Z,93513.91
2022-12-08T03:27:32.281Z,94028.84
2022-12-08T03:30:03.222Z,93256.44
2022-12-08T03:32:36.285Z,92484.19
2022-12-08T03:35:10.029Z,92226.81
2022-12-08T03:37:41.402Z,92484.19
2022-12-08T03:40:12.485Z,92484.19
2022-12-08T03:42:41.092Z,92226.81
2022-12-08T03:45:10.088Z,91712.13
2022-12-08T03:47:38.697Z,91454.81
2022-12-08T03:50:08.177Z,91712.13
2022-12-08T03:52:36.591Z,91712.13
2022-12-08T03:55:07.692Z,91197.50
2022-12-08T03:57:36.175Z,90940.22
2022-12-08T04:00:05.290Z,90682.97
2022-12-08T04:02:33.858Z,90425.72
2022-12-08T04:05:02.382Z,89911.31
2022-12-08T04:07:31.388Z,89911.31
2022-12-08T04:09:59.863Z,89654.13
2022-12-08T04:12:29.640Z,89396.97
2022-12-08T04:14:57.989Z,89911.31
2022-12-08T04:17:26.317Z,89911.31
2022-12-08T04:19:54.829Z,89139.81
2022-12-08T04:22:23.211Z,89396.97
2022-12-08T04:24:51.643Z,89396.97
2022-12-08T04:27:20.097Z,89396.97
2022-12-08T04:29:49.944Z,89654.13
2022-12-08T04:32:18.377Z,89396.97
2022-12-08T04:34:46.633Z,89654.13
2022-12-08T04:37:15.029Z,89654.13
2022-12-08T04:39:43.445Z,89654.13
2022-12-08T04:42:11.891Z,89911.31
2022-12-08T04:44:40.207Z,89911.31
2022-12-08T04:47:10.033Z,89911.31
2022-12-08T04:49:38.806Z,90425.72
2022-12-08T04:52:07.294Z,90682.97
2022-12-08T04:54:36.021Z,90940.22
2022-12-08T04:57:04.403Z,91197.50
2022-12-08T04:59:32.943Z,91454.81
2022-12-08T05:02:01.378Z,91712.13
2022-12-08T05:04:31.260Z,91712.13
2022-12-08T05:06:59.588Z,91969.47
2022-12-08T05:09:28.555Z,92484.19
2022-12-08T05:11:57.245Z,92484.19
2022-12-08T05:14:25.741Z,92741.59
2022-12-08T05:16:54.166Z,92741.59
2022-12-08T05:19:22.540Z,92999.00
2022-12-08T05:21:52.373Z,93256.44
2022-12-08T05:24:20.854Z,93513.91
2022-12-08T05:26:49.169Z,93771.38
2022-12-08T05:29:17.434Z,94028.84
2022-12-08T05:31:46.006Z,94286.38
2022-12-08T05:34:15.047Z,94286.38
2022-12-08T05:36:43.414Z,94286.38
2022-12-08T05:39:14.872Z,94028.84
2022-12-08T05:41:43.420Z,94028.84
2022-12-08T05:44:11.876Z,94028.84
2022-12-08T05:46:40.296Z,94286.38
2022-12-08T05:49:08.716Z,94286.38
2022-12-08T05:51:37.050Z,94543.91
2022-12-08T05:54:05.568Z,94286.38
2022-12-08T05:56:35.566Z,94286.38
2022-12-08T05:59:07.359Z,94286.38
2022-12-08T06:01:36.402Z,94286.38
2022-12-08T06:04:06.179Z,94543.91
2022-12-08T06:06:36.460Z,94028.84
2022-12-08T06:09:06.151Z,94286.38
2022-12-08T06:11:36.239Z,94286.38
2022-12-08T06:14:04.599Z,94028.84
2022-12-08T06:16:32.964Z,94028.84
2022-12-08T06:19:01.541Z,94028.84
2022-12-08T06:21:29.971Z,94286.38
2022-12-08T06:23:58.541Z,94543.91
2022-12-08T06:26:27.022Z,94543.91
2022-12-08T06:28:57.605Z,94286.38
2022-12-08T06:31:27.544Z,92999.00
2022-12-08T06:33:57.106Z,92741.59
2022-12-08T06:36:27.988Z,92999.00
2022-12-08T06:38:57.148Z,93513.91
2022-12-08T06:41:25.779Z,94286.38
2022-12-08T06:43:58.608Z,94286.38
2022-12-08T06:46:27.161Z,93771.38
2022-12-08T06:48:55.617Z,94028.84
2022-12-08T06:51:24.220Z,94543.91
2022-12-08T06:53:52.641Z,95059.00
2022-12-08T06:56:22.960Z,94286.38
2022-12-08T06:58:52.936Z,94543.91
2022-12-08T07:01:23.708Z,94543.91
2022-12-08T07:03:52.237Z,95059.00
2022-12-08T07:06:23.368Z,94286.38
2022-12-08T07:08:52.448Z,93513.91
2022-12-08T07:11:22.416Z,92226.81
2022-12-08T07:13:51.690Z,91969.47
2022-12-08T07:16:20.315Z,91454.81
2022-12-08T07:18:50.805Z,91712.13
2022-12-08T07:21:19.703Z,91197.50
2022-12-08T07:23:54.239Z,91197.50
2022-12-08T07:26:26.861Z,91454.81
2022-12-08T07:28:55.474Z,91969.47
2022-12-08T07:31:26.308Z,92484.19
2022-12-08T07:33:57.552Z,92999.00
2022-12-08T07:36:26.579Z,93256.44
2022-12-08T07:38:55.829Z,93771.38
2022-12-08T07:41:26.045Z,94286.38
2022-12-08T07:43:55.396Z,94801.44
2022-12-08T07:46:26.067Z,95316.59
2022-12-08T07:48:57.209Z,95574.19
2022-12-08T07:51:26.516Z,95831.81
2022-12-08T07:53:55.529Z,96089.47
2022-12-08T07:56:24.674Z,96604.81
2022-12-08T07:58:53.095Z,97120.22
2022-12-08T08:01:25.216Z,97377.97
2022-12-08T08:03:56.947Z,97893.50
2022-12-08T08:06:26.015Z,98409.13
2022-12-08T08:08:54.998Z,98924.81
2022-12-08T08:11:23.473Z,99440.56
2022-12-08T08:13:52.307Z,99440.56
2022-12-08T08:16:21.307Z,99698.47
2022-12-08T08:18:51.337Z,99956.41
2022-12-08T08:21:44.543Z,99956.41
2022-12-08T08:24:11.395Z,99698.47
2022-12-08T08:26:39.842Z,99698.47
2022-12-08T08:29:10.117Z,99956.41
2022-12-08T08:31:38.877Z,99956.41
2022-12-08T08:34:07.506Z,100214.34
2022-12-08T08:36:37.424Z,100214.34
2022-12-08T08:39:06.152Z,100214.34
2022-12-08T08:41:35.489Z,100214.34
2022-12-08T08:44:04.329Z,100472.31
2022-12-08T08:46:33.296Z,100472.31
2022-12-08T08:49:02.891Z,100730.31
2022-12-08T08:51:31.584Z,100988.31
2022-12-08T08:54:01.473Z,100730.31
2022-12-08T08:56:30.167Z,100472.31
2022-12-08T08:58:58.809Z,100988.31
2022-12-08T09:01:28.974Z,101246.34
2022-12-08T09:03:58.284Z,100988.31
2022-12-08T09:06:28.351Z,101246.34
2022-12-08T09:08:57.249Z,101246.34
2022-12-08T09:11:27.177Z,101504.38
2022-12-08T09:13:56.183Z,101246.34
2022-12-08T09:16:24.977Z,101246.34
2022-12-08T09:18:54.173Z,101504.38
2022-12-08T09:21:27.721Z,101504.38
2022-12-08T09:23:58.984Z,101762.47
2022-12-08T09:26:29.638Z,101504.38
2022-12-08T09:28:58.930Z,101762.47
2022-12-08T09:31:27.502Z,102278.66
2022-12-08T09:33:57.964Z,102278.66
2022-12-08T09:36:29.555Z,102278.66
2022-12-08T09:38:58.541Z,102536.75
2022-12-08T09:41:39.207Z,102536.75
2022-12-08T09:44:26.364Z,102536.75
2022-12-08T09:46:57.887Z,102020.53
2022-12-08T09:49:41.285Z,102278.66
2022-12-08T09:52:21.341Z,102536.75
2022-12-08T09:54:50.376Z,102278.66
2022-12-08T09:57:23.924Z,102020.53
2022-12-08T09:59:57.008Z,101504.38
2022-12-08T10:02:27.843Z,102278.66
2022-12-08T10:04:57.917Z,102020.53
2022-12-08T10:07:33.215Z,101504.38
2022-12-08T10:10:07.678Z,101762.47
2022-12-08T10:12:45.026Z,101504.38
2022-12-08T10:15:31.581Z,101504.38
2022-12-08T10:18:03.730Z,100730.31
2022-12-08T10:20:38.691Z,100988.31
2022-12-08T10:23:17.441Z,100988.31
2022-12-08T10:25:47.563Z,100730.31
2022-12-08T10:28:17.763Z,100730.31
2022-12-08T10:30:46.787Z,100472.31
2022-12-08T10:33:17.717Z,98666.94
2022-12-08T10:35:49.242Z,97893.50
2022-12-08T10:38:24.009Z,97635.72
2022-12-08T10:40:54.879Z,96862.50
2022-12-08T10:43:27.116Z,97377.97
2022-12-08T10:45:56.123Z,97635.72
2022-12-08T10:48:31.297Z,97377.97
2022-12-08T10:51:01.602Z,97377.97
2022-12-08T10:53:32.125Z,97377.97
2022-12-08T10:56:08.907Z,96604.81
2022-12-08T10:58:41.690Z,96347.13
2022-12-08T11:01:14.474Z,96089.47
2022-12-08T11:03:48.985Z,94286.38
2022-12-08T11:06:20.729Z,94543.91
2022-12-08T11:08:53.143Z,95574.19
2022-12-08T11:11:28.986Z,95059.00
2022-12-08T11:13:59.514Z,93771.38
2022-12-08T11:16:29.342Z,93256.44
2022-12-08T11:18:59.032Z,93256.44
2022-12-08T11:21:37.184Z,93256.44
2022-12-08T11:24:22.648Z,91712.13
2022-12-08T11:26:55.190Z,91969.47
2022-12-08T11:29:25.423Z,91969.47
2022-12-08T11:31:58.869Z,92484.19
2022-12-08T11:34:34.260Z,92484.19
2022-12-08T11:37:06.454Z,92226.81
2022-12-08T11:39:39.449Z,92484.19
2022-12-08T11:42:13.196Z,92999.00
2022-12-08T11:44:48.853Z,91454.81
2022-12-08T11:47:23.925Z,91969.47
2022-12-08T11:49:56.965Z,91969.47
2022-12-08T11:52:31.965Z,91712.13
2022-12-08T11:55:06.995Z,91969.47
2022-12-08T11:57:35.628Z,92741.59
2022-12-08T12:00:11.905Z,91712.13
2022-12-08T12:02:49.741Z,91454.81
2022-12-08T12:06:05.255Z,89654.13
2022-12-08T12:08:41.750Z,88368.50
2022-12-08T12:11:41.175Z,88111.41
2022-12-08T12:14:24.080Z,88368.50
2022-12-08T12:17:02.311Z,88368.50
2022-12-08T12:19:35.657Z,89396.97
2022-12-08T12:22:16.402Z,89139.81
2022-12-08T12:24:50.355Z,89396.97
2022-12-08T12:27:26.588Z,89654.13
2022-12-08T12:29:59.035Z,90168.50
2022-12-08T12:32:42.837Z,91197.50
2022-12-08T12:35:18.092Z,91969.47
2022-12-08T12:37:50.684Z,92226.81
2022-12-08T12:40:23.207Z,91454.81
2022-12-08T12:43:13.981Z,91712.13
2022-12-08T12:45:44.888Z,92226.81
2022-12-08T12:48:32.667Z,92999.00
2022-12-08T12:51:01.145Z,94028.84
2022-12-08T12:53:50.919Z,94801.44
2022-12-08T12:56:53.384Z,94543.91
2022-12-08T12:59:47.000Z,94801.44
2022-12-08T13:02:25.903Z,94028.84
2022-12-08T13:05:04.879Z,94543.91
2022-12-08T13:07:37.282Z,95316.59
2022-12-08T13:10:17.803Z,95316.59
2022-12-08T13:12:47.667Z,95574.19
2022-12-08T13:15:22.146Z,95831.81
2022-12-08T13:17:51.006Z,95574.19
2022-12-08T13:20:24.960Z,96347.13
2022-12-08T13:23:12.512Z,96604.81
2022-12-08T13:25:50.075Z,96604.81
2022-12-08T13:28:28.338Z,96604.81
2022-12-08T13:31:01.102Z,96347.13
2022-12-08T13:33:39.234Z,96604.81
2022-12-08T13:36:19.979Z,97120.22
2022-12-08T13:38:54.034Z,96862.50
2022-12-08T13:41:25.969Z,96862.50
2022-12-08T13:44:56.760Z,96862.50
2022-12-08T13:47:32.996Z,97377.97
2022-12-08T13:51:51.254Z,97377.97
2022-12-08T13:58:43.033Z,98151.31
2022-12-08T14:01:28.435Z,98409.13
2022-12-08T14:09:04.994Z,98666.94
2022-12-08T14:12:50.414Z,98666.94
2022-12-08T14:17:24.895Z,99182.69
2022-12-08T14:24:50.648Z,99440.56
2022-12-08T14:28:31.324Z,100214.34
2022-12-08T14:33:12.747Z,100472.31
2022-12-08T14:37:32.183Z,100730.31
2022-12-08T14:40:08.672Z,99182.69
2022-12-08T14:42:50.467Z,99440.56
2022-12-08T14:45:26.150Z,99698.47
2022-12-08T14:48:00.673Z,97635.72
2022-12-08T14:50:42.579Z,97635.72
2022-12-08T14:53:23.414Z,97377.97
2022-12-08T14:55:54.971Z,97120.22
2022-12-08T14:58:29.674Z,97635.72
2022-12-08T15:01:01.417Z,97377.97
2022-12-08T15:03:32.598Z,97635.72
2022-12-08T15:06:05.421Z,96862.50
2022-12-08T15:08:36.192Z,97635.72
2022-12-08T15:11:14.969Z,97893.50
2022-12-08T15:13:46.021Z,97635.72
2022-12-08T15:16:29.052Z,97120.22
2022-12-08T15:19:16.507Z,96862.50
2022-12-08T15:21:46.756Z,96604.81
2022-12-08T15:24:16.873Z,96604.81
2022-12-08T15:26:48.424Z,96347.13
2022-12-08T15:29:22.527Z,96347.13
2022-12-08T15:31:54.001Z,96347.13
2022-12-08T15:34:22.729Z,96347.13
2022-12-08T15:36:53.839Z,96604.81
2022-12-08T15:39:33.987Z,96347.13
2022-12-08T15:42:03.768Z,96604.81
2022-12-08T15:44:33.044Z,96604.81
2022-12-08T15:47:03.677Z,96089.47
2022-12-08T15:49:32.549Z,95574.19
2022-12-08T15:52:11.236Z,95831.81
2022-12-08T15:54:40.856Z,95574.19
2022-12-08T15:57:53.043Z,95316.59
2022-12-08T16:04:13.895Z,95316.59
2022-12-08T16:09:13.861Z,95059.00
2022-12-08T16:12:09.628Z,95059.00
2022-12-08T16:17:28.807Z,93513.91
2022-12-08T16:19:59.183Z,93256.44
2022-12-08T16:22:54.148Z,93256.44
2022-12-08T16:25:20.267Z,92999.00
2022-12-08T16:28:02.892Z,93256.44
2022-12-08T16:30:34.972Z,93256.44
2022-12-08T16:33:03.612Z,92999.00
2022-12-08T16:35:33.587Z,91969.47
2022-12-08T16:38:02.109Z,91454.81
2022-12-08T16:40:31.374Z,91969.47
2022-12-08T16:42:58.899Z,91969.47
2022-12-08T16:45:30.091Z,91969.47
2022-12-08T16:48:00.513Z,92226.81
2022-12-08T16:50:31.521Z,92484.19
2022-12-08T16:53:04.006Z,92484.19
2022-12-08T16:55:33.079Z,91712.13
2022-12-08T16:58:02.719Z,91454.81
2022-12-08T17:00:38.641Z,91969.47
2022-12-08T17:03:09.166Z,91454.81
2022-12-08T17:05:41.020Z,91197.50
2022-12-08T17:08:11.407Z,91197.50
2022-12-08T17:10:42.398Z,91712.13
2022-12-08T17:13:13.163Z,92484.19
2022-12-08T17:15:42.151Z,92741.59
2022-12-08T17:18:10.906Z,92999.00
2022-12-08T17:20:41.172Z,92999.00
2022-12-08T17:23:11.656Z,93513.91
2022-12-08T17:25:40.322Z,93771.38
2022-12-08T17:28:09.346Z,94028.84
2022-12-08T17:30:38.160Z,94543.91
2022-12-08T17:33:07.018Z,94801.44
2022-12-08T17:35:35.541Z,95059.00
2022-12-08T17:38:04.189Z,95316.59
2022-12-08T17:40:34.681Z,95831.81
2022-12-08T17:43:03.541Z,95574.19
2022-12-08T17:45:32.436Z,95316.59
2022-12-08T17:48:01.424Z,95059.00
2022-12-08T17:50:30.014Z,94801.44
2022-12-08T17:52:58.588Z,94286.38
2022-12-08T17:55:27.198Z,94543.91
2022-12-08T17:57:57.371Z,93771.38
2022-12-08T18:00:26.346Z,93513.91
2022-12-08T18:02:55.413Z,93256.44
2022-12-08T18:05:24.259Z,93256.44
2022-12-08T18:07:53.824Z,93513.91
2022-12-08T18:10:23.333Z,93513.91
2022-12-08T18:12:52.699Z,93256.44
2022-12-08T18:15:23.674Z,92999.00
2022-12-08T18:17:52.701Z,92999.00
2022-12-08T18:20:21.331Z,92999.00
2022-12-08T18:22:50.106Z,92741.59
2022-12-08T18:25:18.719Z,92999.00
2022-12-08T18:27:48.339Z,92741.59
2022-12-08T18:30:21.048Z,92741.59
2022-12-08T18:32:55.825Z,92741.59
2022-12-08T18:35:27.404Z,92484.19
2022-12-08T18:37:56.519Z,92484.19
2022-12-08T18:40:25.394Z,92484.19
2022-12-08T18:42:55.589Z,92226.81
2022-12-08T18:45:24.388Z,90940.22
2022-12-08T18:47:55.000Z,89911.31
2022-12-08T18:50:32.700Z,88111.41
2022-12-08T18:53:04.575Z,88368.50
2022-12-08T18:55:39.796Z,89396.97
2022-12-08T18:58:08.577Z,90425.72
2022-12-08T19:00:37.369Z,90682.97
2022-12-08T19:03:08.376Z,90425.72
2022-12-08T19:05:37.389Z,90168.50
2022-12-08T19:08:06.694Z,89654.13
2022-12-08T19:10:38.074Z,89654.13
2022-12-08T19:13:09.836Z,90425.72
2022-12-08T19:15:38.750Z,91454.81
2022-12-08T19:18:08.646Z,91712.13
2022-12-08T19:20:37.313Z,92226.81
2022-12-08T19:23:06.915Z,91712.13
2022-12-08T19:25:35.940Z,92226.81
2022-12-08T19:28:05.091Z,93256.44
2022-12-08T19:30:33.871Z,94028.84
2022-12-08T19:33:02.466Z,94028.84
2022-12-08T19:35:32.604Z,94801.44
2022-12-08T19:38:01.390Z,94543.91
2022-12-08T19:40:47.568Z,94286.38
2022-12-08T19:43:46.948Z,95059.00
2022-12-08T19:46:17.248Z,95059.00
2022-12-08T19:48:45.962Z,94543.91
2022-12-08T19:51:16.220Z,94028.84
2022-12-08T19:53:47.782Z,92741.59
2022-12-08T19:56:16.859Z,93256.44
2022-12-08T19:58:45.654Z,93256.44
2022-12-08T20:01:14.611Z,93256.44
2022-12-08T20:03:43.478Z,93771.38
2022-12-08T20:06:16.997Z,94028.84
2022-12-08T20:08:50.574Z,94543.91
2022-12-08T20:11:19.734Z,94286.38
2022-12-08T20:13:48.743Z,94801.44
2022-12-08T20:16:18.268Z,95059.00
2022-12-08T20:18:48.721Z,95059.00
2022-12-08T20:21:19.515Z,94028.84
2022-12-08T20:23:49.860Z,93256.44
2022-12-08T20:26:20.647Z,93771.38
2022-12-08T20:28:49.936Z,94028.84
2022-12-08T20:31:20.056Z,94286.38
2022-12-08T20:33:50.038Z,94286.38
2022-12-08T20:36:22.303Z,94543.91
2022-12-08T20:38:52.876Z,94801.44
2022-12-08T20:41:23.419Z,95574.19
2022-12-08T20:43:53.291Z,95831.81
2022-12-08T20:46:22.646Z,95831.81
2022-12-08T20:48:51.167Z,95831.81
2022-12-08T20:51:23.770Z,96089.47
2022-12-08T20:53:56.416Z,96089.47
2022-12-08T20:56:26.407Z,96089.47
2022-12-08T20:58:55.689Z,96347.13
2022-12-08T21:01:25.380Z,96862.50
2022-12-08T21:03:55.003Z,97120.22
2022-12-08T21:06:27.161Z,97377.97
2022-12-08T21:08:56.151Z,97377.97
2022-12-08T21:11:25.024Z,97377.97
2022-12-08T21:13:54.356Z,97635.72
2022-12-08T21:16:23.396Z,97635.72
2022-12-08T21:18:52.329Z,97893.50
2022-12-08T21:21:21.106Z,98151.31
2022-12-08T21:23:51.617Z,98409.13
2022-12-08T21:26:22.360Z,98409.13
2022-12-08T21:28:51.512Z,98666.94
2022-12-08T21:31:21.757Z,98666.94
2022-12-08T21:33:51.089Z,98924.81
2022-12-08T21:36:22.550Z,99182.69
2022-12-08T21:38:54.929Z,99182.69
2022-12-08T21:41:39.370Z,99440.56
2022-12-08T21:44:09.589Z,99440.56
2022-12-08T21:46:39.253Z,99440.56
2022-12-08T21:49:08.113Z,99440.56
2022-12-08T21:51:41.484Z,99698.47
2022-12-08T21:54:18.336Z,99698.47
2022-12-08T21:56:48.097Z,99698.47
2022-12-08T21:59:17.356Z,99698.47
2022-12-08T22:01:46.735Z,99698.47
2022-12-08T22:04:18.979Z,99698.47
2022-12-08T22:06:48.081Z,99440.56
2022-12-08T22:09:18.448Z,99440.56
2022-12-08T22:11:47.885Z,98924.81
2022-12-08T22:14:16.540Z,98666.94
2022-12-08T22:16:45.376Z,98924.81
2022-12-08T22:19:14.609Z,99440.56
2022-12-08T22:21:43.209Z,99698.47
2022-12-08T22:24:12.216Z,99182.69
2022-12-08T22:26:44.696Z,98924.81
2022-12-08T22:29:13.474Z,98409.13
2022-12-08T22:31:42.788Z,98666.94
2022-12-08T22:34:13.176Z,98924.81
2022-12-08T22:36:42.671Z,99182.69
2022-12-08T22:39:11.855Z,99440.56
2022-12-08T22:41:41.179Z,99698.47
2022-12-08T22:44:13.466Z,99956.41
2022-12-08T22:46:42.829Z,99698.47
2022-12-08T22:49:11.428Z,99698.47
2022-12-08T22:51:40.125Z,99182.69
2022-12-08T22:54:11.594Z,99182.69
2022-12-08T22:56:40.356Z,98924.81
2022-12-08T22:59:09.274Z,99182.69
2022-12-08T23:01:39.557Z,99182.69
2022-12-08T23:04:12.648Z,98924.81
2022-12-08T23:06:45.094Z,98924.81
2022-12-08T23:09:14.021Z,99440.56
2022-12-08T23:11:43.115Z,99182.69
2022-12-08T23:14:11.649Z,98409.13
2022-12-08T23:16:42.106Z,98666.94
2022-12-08T23:19:10.794Z,97893.50
2022-12-08T23:21:39.948Z,98151.31
2022-12-08T23:24:08.634Z,98409.13
2022-12-08T23:26:37.692Z,99182.69
2022-12-08T23:29:06.951Z,98409.13
2022-12-08T23:31:35.864Z,99182.69
2022-12-08T23:34:06.220Z,99698.47
2022-12-08T23:36:34.780Z,99956.41
2022-12-08T23:39:03.298Z,99440.56
2022-12-08T23:41:32.547Z,99440.56
2022-12-08T23:44:01.442Z,99182.69
2022-12-08T23:46:30.225Z,99182.69
2022-12-08T23:48:58.880Z,98666.94
2022-12-08T23:51:28.873Z,98666.94
2022-12-08T23:53:57.596Z,98666.94
2022-12-08T23:56:30.306Z,98151.31
2022-12-08T23:58:59.458Z,98409.13
